createdAt,value
2019-05-22T00:01:00.699Z,11.40
2019-05-22T00:03:33.905Z,11.30
2019-05-22T00:06:06.390Z,11.30
2019-05-22T00:08:37.151Z,11.40
2019-05-22T00:11:05.911Z,11.30
2019-05-22T00:13:38.166Z,11.20
2019-05-22T00:16:11.177Z,11.30
2019-05-22T00:18:40.077Z,11.20
2019-05-22T00:21:10.244Z,11.20
2019-05-22T00:23:41.456Z,11.30
2019-05-22T00:26:11.316Z,11.30
2019-05-22T00:28:40.736Z,11.30
2019-05-22T00:31:09.912Z,11.30
2019-05-22T00:33:39.283Z,11.20
2019-05-22T00:36:10.684Z,11.20
2019-05-22T00:38:39.857Z,11.20
2019-05-22T00:41:10.501Z,11.20
2019-05-22T00:43:41.239Z,11.10
2019-05-22T00:46:12.539Z,11.20
2019-05-22T00:48:42.002Z,11.30
2019-05-22T00:51:22.686Z,11.10
2019-05-22T00:53:55.936Z,11.20
2019-05-22T00:56:28.105Z,11.20
2019-05-22T00:59:05.825Z,11.30
2019-05-22T01:01:48.147Z,11.20
2019-05-22T01:04:19.118Z,11.20
2019-05-22T01:06:48.661Z,11.20
2019-05-22T01:09:19.956Z,11.10
2019-05-22T01:11:48.777Z,11.20
2019-05-22T01:14:18.904Z,11.30
2019-05-22T01:16:49.343Z,11.20
2019-05-22T01:19:19.386Z,11.20
2019-05-22T01:21:50.543Z,11.10
2019-05-22T01:24:19.692Z,11.20
2019-05-22T01:26:50.041Z,11.20
2019-05-22T01:29:21.707Z,11.20
2019-05-22T01:32:08.910Z,11.10
2019-05-22T01:34:38.458Z,11.20
2019-05-22T01:37:08.774Z,11.10
2019-05-22T01:39:45.639Z,11.10
2019-05-22T01:42:17.535Z,11.10
2019-05-22T01:44:59.788Z,11.10
2019-05-22T01:47:24.315Z,11.10
2019-05-22T01:49:58.280Z,11.10
2019-05-22T01:52:27.057Z,11.20
2019-05-22T01:54:57.671Z,11.10
2019-05-22T01:57:27.722Z,11.20
2019-05-22T01:59:57.700Z,11.10
2019-05-22T02:02:26.676Z,11.10
2019-05-22T02:04:58.506Z,11.10
2019-05-22T02:07:29.056Z,11.10
2019-05-22T02:09:59.467Z,11.20
2019-05-22T02:12:37.790Z,11.10
2019-05-22T02:15:07.656Z,11.10
2019-05-22T02:17:37.237Z,11.00
2019-05-22T02:20:08.621Z,11.00
2019-05-22T02:22:38.799Z,11.10
2019-05-22T02:25:08.343Z,11.00
2019-05-22T02:27:38.844Z,11.00
2019-05-22T02:30:09.543Z,11.00
2019-05-22T02:32:39.093Z,11.00
2019-05-22T02:35:09.379Z,11.00
2019-05-22T02:37:39.457Z,11.00
2019-05-22T02:40:13.664Z,11.00
2019-05-22T02:42:42.490Z,11.00
2019-05-22T02:45:11.246Z,11.00
2019-05-22T02:47:40.740Z,11.00
2019-05-22T02:50:09.499Z,11.00
2019-05-22T02:52:38.473Z,11.00
2019-05-22T02:55:07.430Z,11.00
2019-05-22T02:57:36.641Z,11.00
2019-05-22T03:00:06.934Z,11.00
2019-05-22T03:02:39.328Z,10.90
2019-05-22T03:05:10.442Z,11.00
2019-05-22T03:07:41.655Z,11.00
2019-05-22T03:10:12.951Z,11.00
2019-05-22T03:12:45.686Z,11.00
2019-05-22T03:15:16.630Z,11.00
2019-05-22T03:17:45.604Z,11.00
2019-05-22T03:20:18.966Z,10.90
2019-05-22T03:23:09.894Z,10.90
2019-05-22T03:25:39.042Z,11.00
2019-05-22T03:28:08.188Z,10.90
2019-05-22T03:30:41.187Z,11.00
2019-05-22T03:33:10.250Z,10.90
2019-05-22T03:35:51.045Z,11.00
2019-05-22T03:38:20.528Z,11.00
2019-05-22T03:40:52.236Z,10.90
2019-05-22T03:43:24.743Z,11.00
2019-05-22T03:45:56.507Z,11.00
2019-05-22T03:48:27.744Z,11.00
2019-05-22T03:51:00.987Z,10.90
2019-05-22T03:53:30.603Z,11.00
2019-05-22T03:55:59.732Z,10.90
2019-05-22T03:58:29.022Z,11.00
2019-05-22T04:00:58.778Z,11.00
2019-05-22T04:03:27.831Z,11.00
2019-05-22T04:05:57.319Z,11.00
2019-05-22T04:08:27.544Z,10.90
2019-05-22T04:10:59.959Z,11.00
2019-05-22T04:13:29.772Z,11.00
2019-05-22T04:15:59.775Z,11.00
2019-05-22T04:18:29.706Z,11.00
2019-05-22T04:21:00.499Z,11.00
2019-05-22T04:23:29.295Z,10.90
2019-05-22T04:25:59.142Z,10.90
2019-05-22T04:28:29.933Z,10.90
2019-05-22T04:31:00.252Z,10.90
2019-05-22T04:33:30.923Z,10.90
2019-05-22T04:36:01.737Z,10.80
2019-05-22T04:38:30.820Z,10.80
2019-05-22T04:41:02.373Z,10.80
2019-05-22T04:43:34.204Z,10.80
2019-05-22T04:46:04.448Z,10.80
2019-05-22T04:51:26.156Z,10.80
2019-05-22T04:53:56.324Z,10.80
2019-05-22T04:56:26.031Z,10.80
2019-05-22T04:58:55.390Z,10.90
2019-05-22T05:01:24.768Z,10.80
2019-05-22T05:03:53.634Z,10.80
2019-05-22T05:06:24.048Z,10.90
2019-05-22T05:08:52.893Z,10.80
2019-05-22T05:11:21.939Z,10.80
2019-05-22T05:13:50.795Z,10.80
2019-05-22T05:16:23.287Z,10.80
2019-05-22T05:18:52.078Z,10.90
2019-05-22T05:21:20.849Z,10.90
2019-05-22T05:23:49.528Z,11.00
2019-05-22T05:26:19.182Z,11.00
2019-05-22T05:28:48.286Z,11.00
2019-05-22T05:31:18.450Z,11.00
2019-05-22T05:33:56.489Z,11.10
2019-05-22T05:36:25.675Z,11.10
2019-05-22T05:38:55.797Z,11.20
2019-05-22T05:41:24.662Z,11.20
2019-05-22T05:43:53.690Z,11.20
2019-05-22T05:46:22.372Z,11.20
2019-05-22T05:48:52.484Z,11.20
2019-05-22T05:51:23.341Z,11.30
2019-05-22T05:54:06.993Z,11.30
2019-05-22T05:56:37.514Z,11.30
2019-05-22T05:59:07.589Z,11.30
2019-05-22T06:01:41.077Z,11.30
2019-05-22T06:04:11.226Z,11.30
2019-05-22T06:06:43.146Z,11.30
2019-05-22T06:09:16.779Z,11.30
2019-05-22T06:11:48.749Z,11.30
2019-05-22T06:14:33.633Z,11.40
2019-05-22T06:17:25.101Z,11.30
2019-05-22T06:19:57.389Z,11.30
2019-05-22T06:22:26.139Z,11.40
2019-05-22T06:25:00.557Z,11.30
2019-05-22T06:27:31.756Z,11.40
2019-05-22T06:30:04.152Z,11.30
2019-05-22T06:32:52.776Z,11.30
2019-05-22T06:35:21.948Z,11.30
2019-05-22T06:38:00.776Z,11.50
2019-05-22T06:40:29.820Z,11.50
2019-05-22T06:43:21.823Z,11.50
2019-05-22T06:45:50.791Z,11.60
2019-05-22T06:48:19.497Z,11.60
2019-05-22T06:50:49.375Z,11.70
2019-05-22T06:53:19.378Z,11.70
2019-05-22T06:55:48.704Z,11.80
2019-05-22T06:58:18.395Z,11.60
2019-05-22T07:01:05.770Z,11.70
2019-05-22T07:03:39.227Z,11.80
2019-05-22T07:06:08.723Z,11.80
2019-05-22T07:08:40.171Z,12.00
2019-05-22T07:11:11.532Z,11.80
2019-05-22T07:13:40.422Z,11.90
2019-05-22T07:16:10.112Z,11.90
2019-05-22T07:18:40.618Z,11.60
2019-05-22T07:21:09.833Z,11.70
2019-05-22T07:23:38.456Z,11.70
2019-05-22T07:26:08.614Z,11.60
2019-05-22T07:28:37.935Z,11.70
2019-05-22T07:31:07.638Z,11.80
2019-05-22T07:33:38.784Z,11.80
2019-05-22T07:36:10.858Z,11.70
2019-05-22T07:38:38.300Z,11.60
2019-05-22T07:41:24.871Z,11.70
2019-05-22T07:43:49.793Z,11.60
2019-05-22T07:46:19.147Z,11.70
2019-05-22T07:48:49.089Z,11.50
2019-05-22T07:51:19.234Z,11.60
2019-05-22T07:53:48.328Z,11.70
2019-05-22T07:56:18.457Z,11.70
2019-05-22T07:58:48.717Z,11.70
2019-05-22T08:01:18.181Z,11.70
2019-05-22T08:03:48.826Z,11.80
2019-05-22T08:06:18.432Z,11.80
2019-05-22T08:08:47.526Z,11.80
2019-05-22T08:11:17.397Z,11.70
2019-05-22T08:13:46.253Z,11.60
2019-05-22T08:16:16.141Z,11.90
2019-05-22T08:18:45.556Z,11.90
2019-05-22T08:21:14.403Z,11.80
2019-05-22T08:23:43.658Z,11.90
2019-05-22T08:26:13.568Z,12.00
2019-05-22T08:28:42.523Z,11.90
2019-05-22T08:31:12.892Z,12.00
2019-05-22T08:33:41.896Z,12.10
2019-05-22T08:36:10.665Z,12.20
2019-05-22T08:38:39.642Z,12.30
2019-05-22T08:41:09.894Z,12.30
2019-05-22T08:44:03.136Z,12.20
2019-05-22T08:46:12.254Z,12.50
2019-05-22T08:48:47.719Z,12.40
2019-05-22T08:51:14.240Z,12.50
2019-05-22T08:53:47.869Z,12.50
2019-05-22T08:56:14.295Z,12.60
2019-05-22T08:58:44.350Z,12.70
2019-05-22T09:01:14.164Z,12.70
2019-05-22T09:03:43.771Z,12.90
2019-05-22T09:06:12.577Z,12.50
2019-05-22T09:08:41.326Z,12.60
2019-05-22T09:11:10.453Z,12.60
2019-05-22T09:13:39.826Z,12.60
2019-05-22T09:16:10.007Z,12.40
2019-05-22T09:18:47.527Z,12.60
2019-05-22T09:21:16.718Z,12.80
2019-05-22T09:23:46.841Z,12.90
2019-05-22T09:26:18.635Z,13.40
2019-05-22T09:28:47.490Z,13.40
2019-05-22T09:31:17.639Z,13.80
2019-05-22T09:33:46.664Z,13.70
2019-05-22T09:36:16.070Z,14.00
2019-05-22T09:38:45.849Z,14.40
2019-05-22T09:41:16.673Z,14.20
2019-05-22T09:43:45.272Z,14.30
2019-05-22T09:46:15.152Z,14.80
2019-05-22T09:48:44.136Z,14.80
2019-05-22T09:51:12.874Z,14.80
2019-05-22T09:53:41.668Z,15.20
2019-05-22T09:56:10.683Z,15.30
2019-05-22T09:58:39.381Z,15.40
2019-05-22T10:01:11.755Z,15.20
2019-05-22T10:03:39.494Z,15.70
2019-05-22T10:06:08.328Z,14.80
2019-05-22T10:08:37.476Z,14.80
2019-05-22T10:11:06.634Z,14.80
2019-05-22T10:13:36.241Z,15.30
2019-05-22T10:16:06.754Z,15.20
2019-05-22T10:18:36.095Z,15.30
2019-05-22T10:21:05.509Z,15.50
2019-05-22T10:23:34.132Z,15.30
2019-05-22T10:26:02.878Z,14.90
2019-05-22T10:28:31.674Z,14.50
2019-05-22T10:31:00.879Z,15.20
2019-05-22T10:33:30.346Z,15.50
2019-05-22T10:35:59.251Z,16.00
2019-05-22T10:38:27.995Z,16.30
2019-05-22T10:40:59.329Z,16.80
2019-05-22T10:43:28.631Z,17.90
2019-05-22T10:46:01.006Z,17.40
2019-05-22T10:48:30.037Z,16.40
2019-05-22T10:50:59.275Z,16.80
2019-05-22T10:53:33.509Z,16.40
2019-05-22T10:55:59.737Z,16.30
2019-05-22T10:58:28.369Z,16.60
2019-05-22T11:00:57.045Z,18.40
2019-05-22T11:03:26.052Z,18.10
2019-05-22T11:06:06.301Z,19.00
2019-05-22T11:08:29.484Z,18.70
2019-05-22T11:10:56.311Z,16.90
2019-05-22T11:13:25.453Z,17.70
2019-05-22T11:15:54.170Z,19.20
2019-05-22T11:18:23.003Z,18.90
2019-05-22T11:20:52.391Z,17.90
2019-05-22T11:23:21.092Z,18.80
2019-05-22T11:25:49.887Z,18.40
2019-05-22T11:28:18.932Z,18.40
2019-05-22T11:30:48.074Z,19.20
2019-05-22T11:33:16.830Z,19.00
2019-05-22T11:36:05.739Z,18.10
2019-05-22T11:38:34.474Z,18.80
2019-05-22T11:41:03.718Z,19.70
2019-05-22T11:43:32.525Z,20.30
2019-05-22T11:46:01.771Z,19.30
2019-05-22T11:48:30.513Z,18.80
2019-05-22T11:51:01.029Z,18.00
2019-05-22T11:53:30.246Z,19.30
2019-05-22T11:56:00.388Z,19.60
2019-05-22T11:58:29.395Z,20.40
2019-05-22T12:00:58.101Z,22.10
2019-05-22T12:03:27.085Z,19.50
2019-05-22T12:05:55.883Z,18.60
2019-05-22T12:08:25.569Z,18.60
2019-05-22T12:10:54.316Z,19.90
2019-05-22T12:13:23.306Z,20.40
2019-05-22T12:15:53.150Z,18.30
2019-05-22T12:18:21.827Z,18.00
2019-05-22T12:20:50.521Z,19.70
2019-05-22T12:23:19.635Z,20.60
2019-05-22T12:25:48.329Z,19.80
2019-05-22T12:28:17.637Z,20.10
2019-05-22T12:30:47.346Z,20.20
2019-05-22T12:33:16.146Z,20.30
2019-05-22T12:35:44.904Z,21.30
2019-05-22T12:38:13.943Z,21.10
2019-05-22T12:40:43.545Z,21.00
2019-05-22T12:43:12.339Z,19.90
2019-05-22T12:45:41.088Z,20.20
2019-05-22T12:48:10.209Z,20.10
2019-05-22T12:50:39.502Z,19.60
2019-05-22T12:53:09.350Z,21.70
2019-05-22T12:55:38.287Z,22.00
2019-05-22T12:58:07.035Z,21.80
2019-05-22T13:00:36.610Z,22.00
2019-05-22T13:03:07.043Z,21.00
2019-05-22T13:05:39.323Z,22.40
2019-05-22T13:08:09.369Z,21.90
2019-05-22T13:10:38.902Z,21.50
2019-05-22T13:13:07.947Z,22.10
2019-05-22T13:15:39.025Z,21.80
2019-05-22T13:18:10.015Z,22.90
2019-05-22T13:20:43.565Z,21.00
2019-05-22T13:23:13.947Z,20.20
2019-05-22T13:25:43.606Z,21.40
2019-05-22T13:28:16.369Z,20.20
2019-05-22T13:30:48.375Z,21.30
2019-05-22T13:33:22.161Z,20.10
2019-05-22T13:35:52.142Z,21.00
2019-05-22T13:38:21.283Z,20.80
2019-05-22T13:40:50.275Z,20.00
2019-05-22T13:43:19.313Z,21.50
2019-05-22T13:45:48.067Z,21.00
2019-05-22T13:48:16.678Z,21.90
2019-05-22T13:50:47.804Z,22.70
2019-05-22T13:53:18.024Z,21.70
2019-05-22T13:55:47.247Z,22.50
2019-05-22T13:58:18.602Z,21.00
2019-05-22T14:00:48.011Z,19.20
2019-05-22T14:03:17.618Z,19.10
2019-05-22T14:05:46.936Z,18.80
2019-05-22T14:08:16.308Z,18.60
2019-05-22T14:10:45.467Z,18.00
2019-05-22T14:13:15.759Z,17.80
2019-05-22T14:15:52.610Z,17.00
2019-05-22T14:18:15.204Z,17.50
2019-05-22T14:20:44.303Z,18.10
2019-05-22T14:23:14.005Z,18.10
2019-05-22T14:25:43.947Z,18.90
2019-05-22T14:28:14.169Z,19.70
2019-05-22T14:30:43.867Z,19.90
2019-05-22T14:33:12.849Z,20.40
2019-05-22T14:35:48.366Z,20.00
2019-05-22T14:38:13.466Z,21.10
2019-05-22T14:40:42.927Z,20.40
2019-05-22T14:43:11.998Z,20.00
2019-05-22T14:45:42.482Z,20.00
2019-05-22T14:48:11.599Z,20.90
2019-05-22T14:50:40.282Z,18.80
2019-05-22T14:53:10.693Z,17.70
2019-05-22T14:55:40.589Z,17.60
2019-05-22T14:58:10.010Z,17.60
2019-05-22T15:00:39.554Z,19.50
2019-05-22T15:03:09.070Z,21.60
2019-05-22T15:05:37.980Z,22.60
2019-05-22T15:08:07.493Z,22.50
2019-05-22T15:10:39.084Z,21.10
2019-05-22T15:13:08.774Z,19.40
2019-05-22T15:15:40.656Z,19.60
2019-05-22T15:18:08.209Z,19.00
2019-05-22T15:20:42.195Z,18.30
2019-05-22T15:23:11.552Z,17.70
2019-05-22T15:25:40.330Z,19.00
2019-05-22T15:28:09.943Z,20.20
2019-05-22T15:30:39.290Z,20.40
2019-05-22T15:33:09.470Z,21.40
2019-05-22T15:35:38.350Z,21.10
2019-05-22T15:38:10.387Z,20.90
2019-05-22T15:40:39.701Z,20.20
2019-05-22T15:43:10.372Z,20.60
2019-05-22T15:45:40.281Z,21.20
2019-05-22T15:48:12.487Z,20.10
2019-05-22T15:50:43.497Z,18.50
2019-05-22T15:53:15.183Z,17.80
2019-05-22T15:55:45.780Z,18.20
2019-05-22T15:58:17.336Z,17.80
2019-05-22T16:00:48.269Z,17.90
2019-05-22T16:03:25.160Z,18.10
2019-05-22T16:05:54.914Z,19.30
2019-05-22T16:08:24.404Z,20.90
2019-05-22T16:10:58.945Z,20.90
2019-05-22T16:13:26.898Z,19.60
2019-05-22T16:15:57.608Z,19.30
2019-05-22T16:18:31.894Z,18.50
2019-05-22T16:21:04.628Z,18.50
2019-05-22T16:23:37.460Z,17.30
2019-05-22T16:26:10.006Z,17.50
2019-05-22T16:28:41.040Z,17.80
2019-05-22T16:31:10.710Z,17.70
2019-05-22T16:33:43.531Z,17.10
2019-05-22T16:36:13.355Z,17.40
2019-05-22T16:38:44.030Z,16.90
2019-05-22T16:41:13.514Z,17.10
2019-05-22T16:43:49.336Z,17.50
2019-05-22T16:46:16.869Z,18.00
2019-05-22T16:48:48.076Z,17.90
2019-05-22T16:51:18.511Z,17.60
2019-05-22T16:53:57.828Z,17.40
2019-05-22T16:56:27.749Z,17.30
2019-05-22T16:58:56.890Z,17.40
2019-05-22T17:01:26.872Z,16.90
2019-05-22T17:03:58.641Z,17.30
2019-05-22T17:06:27.917Z,17.30
2019-05-22T17:08:58.039Z,17.00
2019-05-22T17:11:27.949Z,17.00
2019-05-22T17:13:59.331Z,17.30
2019-05-22T17:16:29.653Z,16.90
2019-05-22T17:18:58.778Z,16.90
2019-05-22T17:21:28.832Z,16.50
2019-05-22T17:23:59.427Z,16.40
2019-05-22T17:26:30.068Z,16.30
2019-05-22T17:28:59.576Z,16.10
2019-05-22T17:31:29.465Z,16.20
2019-05-22T17:33:59.489Z,16.20
2019-05-22T17:36:30.963Z,16.20
2019-05-22T17:38:59.901Z,16.30
2019-05-22T17:41:30.531Z,16.50
2019-05-22T17:44:00.747Z,16.40
2019-05-22T17:46:31.755Z,16.30
2019-05-22T17:49:01.524Z,16.30
2019-05-22T17:51:31.213Z,16.20
2019-05-22T17:54:00.325Z,16.10
2019-05-22T17:56:29.342Z,16.00
2019-05-22T17:58:58.141Z,16.10
2019-05-22T18:01:28.069Z,15.90
2019-05-22T18:03:56.967Z,15.80
2019-05-22T18:06:26.471Z,16.00
2019-05-22T18:08:58.269Z,16.10
2019-05-22T18:11:27.222Z,16.00
2019-05-22T18:14:00.934Z,15.90
2019-05-22T18:16:31.189Z,15.80
2019-05-22T18:19:00.299Z,15.90
2019-05-22T18:21:28.989Z,15.70
2019-05-22T18:24:09.806Z,15.70
2019-05-22T18:26:38.575Z,15.70
2019-05-22T18:29:07.378Z,15.60
2019-05-22T18:31:36.231Z,15.60
2019-05-22T18:34:05.283Z,15.50
2019-05-22T18:36:34.737Z,15.40
2019-05-22T18:39:03.854Z,15.40
2019-05-22T18:41:32.585Z,15.20
2019-05-22T18:44:01.372Z,15.10
2019-05-22T18:46:33.883Z,15.10
2019-05-22T18:49:02.801Z,15.10
2019-05-22T18:51:32.156Z,14.90
2019-05-22T18:54:01.290Z,14.80
2019-05-22T18:56:30.237Z,14.80
2019-05-22T18:58:58.941Z,14.90
2019-05-22T19:01:27.784Z,15.10
2019-05-22T19:03:56.479Z,15.60
2019-05-22T19:06:30.290Z,15.10
2019-05-22T19:08:56.151Z,15.70
2019-05-22T19:11:24.939Z,15.80
2019-05-22T19:13:53.562Z,15.20
2019-05-22T19:16:23.592Z,14.50
2019-05-22T19:18:52.320Z,14.40
2019-05-22T19:21:21.276Z,14.40
2019-05-22T19:23:50.714Z,14.50
2019-05-22T19:26:19.685Z,14.40
2019-05-22T19:28:48.485Z,14.20
2019-05-22T19:31:17.228Z,14.20
2019-05-22T19:33:46.267Z,14.20
2019-05-22T19:36:14.941Z,14.20
2019-05-22T19:38:43.712Z,14.10
2019-05-22T19:41:12.703Z,13.90
2019-05-22T19:43:41.881Z,13.70
2019-05-22T19:46:11.150Z,13.60
2019-05-22T19:48:39.895Z,13.60
2019-05-22T19:51:08.565Z,13.40
2019-05-22T19:53:37.676Z,13.40
2019-05-22T19:56:06.910Z,13.30
2019-05-22T19:58:35.832Z,13.50
2019-05-22T20:01:05.937Z,13.40
2019-05-22T20:03:35.073Z,13.30
2019-05-22T20:06:03.815Z,13.20
2019-05-22T20:08:36.153Z,13.10
2019-05-22T20:11:04.330Z,13.00
2019-05-22T20:13:33.733Z,12.80
2019-05-22T20:16:02.699Z,12.70
2019-05-22T20:18:31.482Z,12.60
2019-05-22T20:21:00.431Z,12.60
2019-05-22T20:23:35.981Z,12.70
2019-05-22T20:26:01.831Z,12.60
2019-05-22T20:28:31.562Z,12.70
2019-05-22T20:31:00.374Z,12.50
2019-05-22T20:33:29.068Z,12.40
2019-05-22T20:35:57.850Z,12.30
2019-05-22T20:38:27.415Z,12.30
2019-05-22T20:40:56.439Z,12.20
2019-05-22T20:43:25.904Z,12.20
2019-05-22T20:45:55.536Z,12.20
2019-05-22T20:48:27.061Z,12.30
2019-05-22T20:51:08.597Z,12.30
2019-05-22T20:53:54.819Z,12.20
2019-05-22T20:56:25.316Z,12.20
2019-05-22T20:58:54.657Z,12.10
2019-05-22T21:01:23.406Z,12.10
2019-05-22T21:03:52.660Z,12.10
2019-05-22T21:06:23.200Z,12.10
2019-05-22T21:08:52.594Z,12.00
2019-05-22T21:11:25.146Z,12.00
2019-05-22T21:13:54.731Z,12.00
2019-05-22T21:16:23.812Z,11.90
2019-05-22T21:18:54.257Z,11.80
2019-05-22T21:21:25.701Z,11.70
2019-05-22T21:24:09.577Z,11.60
2019-05-22T21:26:26.713Z,11.70
2019-05-22T21:28:55.456Z,11.90
2019-05-22T21:31:24.873Z,11.80
2019-05-22T21:33:54.510Z,11.80
2019-05-22T21:36:24.760Z,11.80
2019-05-22T21:38:53.954Z,11.90
2019-05-22T21:41:23.281Z,11.80
2019-05-22T21:43:53.843Z,11.70
2019-05-22T21:46:23.396Z,11.70
2019-05-22T21:48:53.732Z,11.50
2019-05-22T21:51:23.620Z,11.50
2019-05-22T21:53:53.362Z,11.40
2019-05-22T21:56:22.609Z,11.40
2019-05-22T21:58:52.060Z,11.30
2019-05-22T22:01:22.381Z,11.40
2019-05-22T22:03:53.788Z,11.40
2019-05-22T22:06:23.411Z,11.40
2019-05-22T22:08:52.169Z,11.30
2019-05-22T22:11:23.890Z,11.30
2019-05-22T22:13:53.034Z,11.30
2019-05-22T22:16:23.041Z,11.20
2019-05-22T22:18:51.786Z,11.10
2019-05-22T22:21:21.269Z,11.20
2019-05-22T22:23:50.531Z,11.10
2019-05-22T22:26:25.868Z,11.20
2019-05-22T22:28:51.021Z,11.20
2019-05-22T22:31:21.308Z,11.20
2019-05-22T22:33:53.186Z,11.20
2019-05-22T22:36:22.313Z,11.10
2019-05-22T22:38:51.944Z,11.00
2019-05-22T22:41:21.454Z,10.90
2019-05-22T22:43:52.071Z,10.70
2019-05-22T22:46:41.474Z,10.50
2019-05-22T22:49:13.488Z,10.40
2019-05-22T22:51:42.696Z,10.20
2019-05-22T22:54:14.199Z,10.20
2019-05-22T22:56:43.542Z,10.10
2019-05-22T22:59:12.960Z,10.10
2019-05-22T23:01:46.020Z,10.00
2019-05-22T23:04:15.461Z,9.90
2019-05-22T23:06:45.139Z,9.80
2019-05-22T23:09:15.288Z,9.80
2019-05-22T23:11:45.851Z,9.80
2019-05-22T23:14:15.659Z,9.70
2019-05-22T23:16:45.312Z,9.70
2019-05-22T23:19:18.187Z,9.60
2019-05-22T23:21:48.961Z,9.50
2019-05-22T23:24:19.911Z,9.50
2019-05-22T23:26:49.329Z,9.40
2019-05-22T23:29:19.738Z,9.40
2019-05-22T23:31:49.734Z,9.50
2019-05-22T23:34:18.665Z,9.40
2019-05-22T23:36:47.617Z,9.40
2019-05-22T23:39:18.459Z,9.40
2019-05-22T23:41:48.665Z,9.40
2019-05-22T23:44:20.192Z,9.20
2019-05-22T23:46:49.886Z,9.10
2019-05-22T23:49:19.323Z,9.20
2019-05-22T23:51:48.537Z,9.10
2019-05-22T23:54:17.310Z,9.10
2019-05-22T23:56:46.641Z,9.10
2019-05-22T23:59:16.860Z,9.00
